Latest Coastal Weather Observations for Arlington Reef

IDQ60701

Issued at 7:35 am EST Tuesday 21 October 2014 (issued every 10 minutes, with the page automatically refreshed every 10 minutes)

About coastal observations | Map of coastal stations | Coastal observations for QLD | Marine services | Other Formats
Station Details ID: 200879 Name: ARLINGTON REEF Lat: -16.72 Lon: 146.11 Height: 0.0 m
Data from the previous 72 hours. | See also: Recent months at Arlington Reef
Date/Time
EST
Temp

°C
Wind Pressure Rain
since 9am
mm
Weather Cloud Vis
km
Sea
Height
m
Swell
Dir
 
Speed
knots
Gust
knots
hPa Trend Height
m
Period
s
Dir
21/07:30am - ESE 17 19 1018.3 - - - - - - - - -
21/07:00am - SE 17 21 1017.9 - - - - - - - - -
21/06:30am - ESE 18 21 1017.4 - - - - - - - - -
21/06:00am - ESE 18 20 1017.2 - - - - - - - - -
21/05:30am - SE 15 18 1017.1 - - - - - - - - -
21/05:00am - SE 17 21 1016.8 - - - - - - - - -
21/04:30am - SE 18 21 1016.6 - - - - - - - - -
21/04:00am - SE 18 20 1016.6 - - - - - - - - -
21/03:30am - SE 20 22 1016.5 - - - - - - - - -
21/03:00am - SE 18 22 1016.6 - - - - - - - - -
21/02:30am - SE 19 23 1016.6 - - - - - - - - -
21/02:00am - SE 19 22 1016.8 - - - - - - - - -
21/01:30am - SE 20 24 1017.0 - - - - - - - - -
21/01:00am - SE 20 23 1017.5 - - - - - - - - -
21/12:30am - SE 19 24 1018.1 - - - - - - - - -
21/12:00am - SE 21 25 1018.2 - - - - - - - - -
 
Date/Time
EST
Temp

°C
Wind Pressure Rain
since 9am
mm
Weather Cloud Vis
km
Sea
Height
m
Swell
Dir
 
Speed
knots
Gust
knots
hPa Trend Height
m
Period
s
Dir
20/11:30pm - SE 22 25 1018.5 - - - - - - - - -
20/11:00pm - ESE 19 23 1018.8 - - - - - - - - -
20/10:30pm - SE 19 22 1018.9 - - - - - - - - -
20/10:00pm - SE 21 23 1019.0 - - - - - - - - -
20/09:30pm - SE 21 27 1018.7 - - - - - - - - -
20/09:00pm - SE 19 22 1018.6 - - - - - - - - -
20/08:30pm - SE 19 22 1018.4 - - - - - - - - -
20/08:00pm - SE 20 23 1018.1 - - - - - - - - -
20/07:30pm - SE 19 23 1017.8 - - - - - - - - -
20/07:00pm - SE 20 23 1017.4 - - - - - - - - -
20/06:30pm - SE 19 21 1017.2 - - - - - - - - -
20/06:00pm - SE 18 22 1016.9 - - - - - - - - -
20/05:30pm - SE 19 23 1016.6 - - - - - - - - -
20/05:00pm - SE 20 23 1016.2 - - - - - - - - -
20/04:30pm - SE 21 24 1016.0 - - - - - - - - -
20/04:00pm - SE 21 24 1016.0 - - - - - - - - -
20/03:30pm - SE 21 24 1016.2 - - - - - - - - -
20/03:00pm - SE 21 24 1016.3 - - - - - - - - -
20/02:30pm - SE 21 25 1016.4 - - - - - - - - -
20/02:00pm - SSE 24 28 1016.8 - - - - - - - - -
20/01:30pm - SE 21 24 1017.0 - - - - - - - - -
20/01:00pm - SE 22 27 1017.3 - - - - - - - - -
20/12:30pm - ESE 22 26 1017.9 - - - - - - - - -
20/12:00pm - SE 22 26 1018.2 - - - - - - - - -
20/11:30am - SE 22 26 1018.6 - - - - - - - - -
20/11:00am - SE 22 26 1019.0 - - - - - - - - -
20/10:30am - SE 23 27 1019.0 - - - - - - - - -
20/10:00am - SE 23 26 1019.0 - - - - - - - - -
20/09:30am - SE 23 26 1019.3 - - - - - - - - -
20/09:00am - SE 23 27 1019.2 - - - - - - - - -
20/08:30am - SE 24 28 1018.9 - - - - - - - - -
20/08:00am - SE 21 24 1018.7 - - - - - - - - -
20/07:30am - SE 22 28 1018.6 - - - - - - - - -
20/07:00am - SE 22 27 1018.0 - - - - - - - - -
20/06:30am - SE 20 25 1017.7 - - - - - - - - -
20/06:00am - SE 21 26 1017.3 - - - - - - - - -
20/05:30am - SE 21 24 1017.0 - - - - - - - - -
20/05:00am - ESE 20 22 1016.9 - - - - - - - - -
20/04:30am - ESE 21 25 1016.8 - - - - - - - - -
20/04:00am - ESE 21 27 1016.5 - - - - - - - - -
20/03:30am - ESE 21 25 1016.5 - - - - - - - - -
20/03:00am - ESE 19 24 1016.6 - - - - - - - - -
20/02:30am - ESE 20 24 1016.7 - - - - - - - - -
20/02:00am - ESE 21 25 1017.0 - - - - - - - - -
20/01:30am - ESE 22 26 1017.3 - - - - - - - - -
20/01:00am - ESE 20 25 1017.7 - - - - - - - - -
20/12:30am - SE 20 24 1018.1 - - - - - - - - -
20/12:00am - SE 21 25 1018.5 - - - - - - - - -
 
Date/Time
EST
Temp

°C
Wind Pressure Rain
since 9am
mm
Weather Cloud Vis
km
Sea
Height
m
Swell
Dir
 
Speed
knots
Gust
knots
hPa Trend Height
m
Period
s
Dir
19/11:30pm - SE 22 26 1018.8 - - - - - - - - -
19/11:00pm - ESE 23 28 1019.0 - - - - - - - - -
19/10:30pm - SE 24 27 1019.1 - - - - - - - - -
19/10:00pm - ESE 22 28 1019.4 - - - - - - - - -
19/09:30pm - SE 22 26 1019.1 - - - - - - - - -
19/09:00pm - SE 22 26 1018.8 - - - - - - - - -
19/08:30pm - SE 22 27 1018.6 - - - - - - - - -
19/08:00pm - SE 22 27 1018.2 - - - - - - - - -
19/07:30pm - SE 23 26 1017.9 - - - - - - - - -
19/07:00pm - SE 24 28 1017.8 - - - - - - - - -
19/06:30pm - SE 25 29 1017.5 - - - - - - - - -
19/06:00pm - SE 23 27 1017.2 - - - - - - - - -
19/05:30pm - SE 23 28 1017.1 - - - - - - - - -
19/05:00pm - SE 24 28 1016.8 - - - - - - - - -
19/04:30pm - SE 24 28 1016.5 - - - - - - - - -
19/04:00pm - SSE 24 29 1016.2 - - - - - - - - -
19/03:30pm - SE 25 29 1016.1 - - - - - - - - -
19/03:00pm - SE 23 28 1016.4 - - - - - - - - -
19/02:30pm - SSE 23 28 1016.3 - - - - - - - - -
19/02:00pm - SE 23 28 1016.7 - - - - - - - - -
19/01:30pm - SSE 23 28 1017.0 - - - - - - - - -
19/01:00pm - SE 22 25 1017.3 - - - - - - - - -
19/12:30pm - SE 22 27 1017.6 - - - - - - - - -
19/12:00pm - SSE 22 27 1018.0 - - - - - - - - -
19/11:30am - SSE 22 25 1018.3 - - - - - - - - -
19/11:00am - SSE 21 27 1018.7 - - - - - - - - -
19/10:30am - SSE 22 27 1018.9 - - - - - - - - -
19/10:00am - SE 23 28 1019.1 - - - - - - - - -
19/09:30am - SE 22 27 1019.1 - - - - - - - - -
19/09:00am - SE 24 29 1019.2 - - - - - - - - -
19/08:30am - SE 23 27 1019.2 - - - - - - - - -
19/08:00am - SE 22 26 1018.9 - - - - - - - - -
19/07:30am - SE 23 26 1018.6 - - - - - - - - -
19/07:00am - SSE 22 26 1018.2 - - - - - - - - -
19/06:30am - SSE 22 26 1017.7 - - - - - - - - -
19/06:00am - SSE 19 22 1017.5 - - - - - - - - -
19/05:30am - SE 20 23 1017.7 - - - - - - - - -
19/05:00am - SE 21 25 1017.3 - - - - - - - - -
19/04:30am - SE 21 24 1017.2 - - - - - - - - -
19/04:00am - SE 20 24 1017.0 - - - - - - - - -
19/03:30am - SE 20 23 1016.8 - - - - - - - - -
19/03:00am - SE 21 25 1016.9 - - - - - - - - -
19/02:30am - SE 20 23 1017.1 - - - - - - - - -
19/02:00am - SE 21 24 1017.3 - - - - - - - - -
19/01:30am - SE 20 24 1017.6 - - - - - - - - -
19/01:00am - SE 20 23 1018.0 - - - - - - - - -
19/12:30am - SE 21 25 1018.5 - - - - - - - - -
19/12:00am - SE 21 26 1018.6 - - - - - - - - -
 
Date/Time
EST
Temp

°C
Wind Pressure Rain
since 9am
mm
Weather Cloud Vis
km
Sea
Height
m
Swell
Dir
 
Speed
knots
Gust
knots
hPa Trend Height
m
Period
s
Dir
18/11:30pm - SE 22 25 1018.9 - - - - - - - - -
18/11:00pm - SE 22 26 1019.1 - - - - - - - - -
18/10:30pm - SE 22 26 1019.3 - - - - - - - - -
18/10:00pm - SE 22 27 1019.2 - - - - - - - - -
18/09:30pm - SE 22 26 1019.3 - - - - - - - - -
18/09:00pm - SE 21 24 1019.1 - - - - - - - - -
18/08:30pm - SE 21 25 1018.8 - - - - - - - - -
18/08:00pm - SE 22 26 1018.5 - - - - - - - - -
18/07:30pm - SE 23 28 1018.2 - - - - - - - - -
18/07:00pm - SSE 23 26 1018.0 - - - - - - - - -
18/06:30pm - SSE 23 28 1017.6 - - - - - - - - -
18/06:00pm - SSE 23 27 1017.2 - - - - - - - - -
18/05:30pm - SSE 23 28 1016.6 - - - - - - - - -
18/05:00pm - SSE 23 28 1016.4 - - - - - - - - -
18/04:30pm - SSE 20 24 1016.2 - - - - - - - - -
18/04:00pm - SSE 19 23 1016.0 - - - - - - - - -
18/03:30pm - SSE 20 23 1015.9 - - - - - - - - -
18/03:00pm - SSE 19 24 1015.9 - - - - - - - - -
18/02:30pm - SSE 20 24 1016.1 - - - - - - - - -
18/02:00pm - SSE 18 22 1016.3 - - - - - - - - -
18/01:30pm - SSE 20 23 1016.6 - - - - - - - - -
18/01:00pm - SSE 19 25 1016.9 - - - - - - - - -
18/12:30pm - S 18 21 1017.3 - - - - - - - - -
18/12:00pm - SSE 18 20 1017.8 - - - - - - - - -
18/11:30am - S 16 19 1018.2 - - - - - - - - -
18/11:00am - S 17 20 1018.5 - - - - - - - - -
18/10:30am - SSE 17 21 1018.7 - - - - - - - - -
18/10:00am - SSE 18 22 1018.8 - - - - - - - - -
18/09:30am - SSE 18 21 1018.9 - - - - - - - - -
18/09:00am - SSE 18 22 1018.7 - - - - - - - - -
18/08:30am - SSE 17 20 1018.7 - - - - - - - - -
18/08:00am - SSE 17 22 1018.6 - - - - - - - - -

Other Formats:

Comma delimited format used in spreadsheet applications
http://www.bom.gov.au/fwo/IDQ60701/IDQ60701.94284.axf

JavaScript Object Notation format (JSON) in row-major order
http://www.bom.gov.au/fwo/IDQ60701/IDQ60701.94284.json